createdAt,value
2023-05-15T00:02:10.543Z,100.00
2023-05-15T00:04:38.342Z,100.00
2023-05-15T00:07:06.371Z,100.00
2023-05-15T00:09:33.889Z,100.00
2023-05-15T00:12:01.921Z,100.00
2023-05-15T00:14:29.479Z,100.00
2023-05-15T00:16:57.169Z,100.00
2023-05-15T00:19:25.234Z,100.00
2023-05-15T00:21:53.974Z,100.00
2023-05-15T00:24:22.572Z,100.00
2023-05-15T00:26:50.389Z,100.00
2023-05-15T00:29:17.942Z,100.00
2023-05-15T00:31:45.945Z,100.00
2023-05-15T00:34:13.513Z,100.00
2023-05-15T00:36:41.167Z,100.00
2023-05-15T00:39:08.641Z,100.00
2023-05-15T00:41:37.360Z,100.00
2023-05-15T00:44:07.022Z,100.00
2023-05-15T00:46:36.943Z,100.00
2023-05-15T00:49:06.756Z,100.00
2023-05-15T00:51:35.696Z,100.00
2023-05-15T00:54:03.852Z,100.00
2023-05-15T00:56:33.549Z,100.00
2023-05-15T00:59:04.073Z,100.00
2023-05-15T01:01:34.749Z,100.00
2023-05-15T01:04:04.360Z,100.00
2023-05-15T01:06:32.314Z,100.00
2023-05-15T01:09:04.218Z,100.00
2023-05-15T01:11:36.239Z,100.00
2023-05-15T01:14:06.375Z,100.00
2023-05-15T01:16:35.907Z,100.00
2023-05-15T01:19:05.270Z,100.00
2023-05-15T01:21:36.834Z,100.00
2023-05-15T01:24:25.897Z,100.00
2023-05-15T01:27:15.384Z,100.00
2023-05-15T01:30:02.090Z,100.00
2023-05-15T01:32:49.927Z,100.00
2023-05-15T01:35:33.013Z,100.00
2023-05-15T01:38:13.108Z,100.00
2023-05-15T01:40:41.930Z,100.00
2023-05-15T01:43:15.849Z,100.00
2023-05-15T01:45:43.660Z,100.00
2023-05-15T01:48:13.968Z,100.00
2023-05-15T01:50:45.289Z,100.00
2023-05-15T01:53:12.841Z,100.00
2023-05-15T01:55:41.816Z,100.00
2023-05-15T01:58:10.171Z,100.00
2023-05-15T02:00:38.830Z,100.00
2023-05-15T02:03:07.115Z,100.00
2023-05-15T02:05:35.428Z,100.00
2023-05-15T02:08:04.635Z,100.00
2023-05-15T02:10:34.229Z,100.00
2023-05-15T02:13:02.066Z,100.00
2023-05-15T02:15:30.678Z,100.00
2023-05-15T02:17:58.493Z,100.00
2023-05-15T02:20:26.024Z,100.00
2023-05-15T02:22:53.717Z,100.00
2023-05-15T02:25:34.827Z,100.00
2023-05-15T02:28:07.306Z,100.00
2023-05-15T02:30:46.238Z,100.00
2023-05-15T02:33:31.312Z,100.00
2023-05-15T02:36:19.922Z,100.00
2023-05-15T02:38:55.538Z,100.00
2023-05-15T02:41:23.863Z,100.00
2023-05-15T02:43:55.392Z,100.00
2023-05-15T02:46:25.501Z,100.00
2023-05-15T02:48:55.302Z,100.00
2023-05-15T02:51:23.236Z,100.00
2023-05-15T02:53:52.661Z,100.00
2023-05-15T02:56:20.872Z,100.00
2023-05-15T02:58:49.688Z,100.00
2023-05-15T03:01:18.358Z,100.00
2023-05-15T03:03:46.513Z,100.00
2023-05-15T03:06:14.586Z,100.00
2023-05-15T03:08:42.131Z,100.00
2023-05-15T03:11:09.643Z,100.00
2023-05-15T03:13:38.109Z,100.00
2023-05-15T03:16:06.445Z,100.00
2023-05-15T03:18:34.162Z,100.00
2023-05-15T03:21:01.731Z,100.00
2023-05-15T03:23:31.286Z,100.00
2023-05-15T03:25:59.000Z,100.00
2023-05-15T03:28:26.968Z,100.00
2023-05-15T03:30:54.506Z,100.00
2023-05-15T03:33:22.150Z,100.00
2023-05-15T03:35:51.224Z,100.00
2023-05-15T03:38:20.024Z,100.00
2023-05-15T03:40:50.869Z,100.00
2023-05-15T03:43:18.697Z,100.00
2023-05-15T03:45:49.647Z,100.00
2023-05-15T03:48:17.865Z,100.00
2023-05-15T03:50:46.790Z,100.00
2023-05-15T03:53:14.732Z,100.00
2023-05-15T03:55:42.389Z,100.00
2023-05-15T03:58:09.872Z,100.00
2023-05-15T04:00:37.874Z,100.00
2023-05-15T04:03:06.036Z,100.00
2023-05-15T04:05:34.127Z,100.00
2023-05-15T04:08:01.737Z,100.00
2023-05-15T04:10:29.498Z,100.00
2023-05-15T04:12:57.510Z,100.00
2023-05-15T04:15:28.700Z,100.00
2023-05-15T04:17:56.515Z,100.00
2023-05-15T04:20:25.174Z,100.00
2023-05-15T04:22:53.852Z,100.00
2023-05-15T04:25:21.426Z,100.00
2023-05-15T04:27:49.479Z,100.00
2023-05-15T04:30:17.326Z,100.00
2023-05-15T04:32:45.973Z,100.00
2023-05-15T04:35:15.511Z,100.00
2023-05-15T04:37:45.494Z,100.00
2023-05-15T04:40:15.093Z,100.00
2023-05-15T04:42:42.672Z,100.00
2023-05-15T04:45:10.356Z,100.00
2023-05-15T04:47:38.042Z,100.00
2023-05-15T04:50:06.868Z,100.00
2023-05-15T04:52:34.392Z,100.00
2023-05-15T04:55:02.276Z,100.00
2023-05-15T04:57:30.575Z,100.00
2023-05-15T04:59:58.559Z,100.00
2023-05-15T05:02:26.297Z,100.00
2023-05-15T05:04:53.888Z,100.00
2023-05-15T05:07:21.771Z,100.00
2023-05-15T05:09:49.378Z,100.00
2023-05-15T05:12:16.857Z,100.00
2023-05-15T05:14:44.993Z,100.00
2023-05-15T05:17:12.563Z,100.00
2023-05-15T05:19:40.606Z,100.00
2023-05-15T05:22:08.356Z,100.00
2023-05-15T05:24:37.548Z,100.00
2023-05-15T05:27:05.617Z,100.00
2023-05-15T05:29:34.399Z,100.00
2023-05-15T05:32:02.012Z,100.00
2023-05-15T05:34:29.606Z,100.00
2023-05-15T05:36:57.670Z,100.00
2023-05-15T05:39:25.658Z,100.00
2023-05-15T05:41:53.719Z,100.00
2023-05-15T05:44:21.339Z,100.00
2023-05-15T05:46:49.689Z,100.00
2023-05-15T05:49:17.198Z,100.00
2023-05-15T05:51:47.090Z,100.00
2023-05-15T05:54:15.583Z,100.00
2023-05-15T05:56:43.173Z,100.00
2023-05-15T05:59:10.915Z,100.00
2023-05-15T06:01:38.561Z,100.00
2023-05-15T06:04:06.191Z,100.00
2023-05-15T06:06:34.612Z,100.00
2023-05-15T06:09:04.124Z,100.00
2023-05-15T06:11:32.928Z,100.00
2023-05-15T06:14:00.784Z,100.00
2023-05-15T06:16:28.396Z,100.00
2023-05-15T06:18:56.440Z,100.00
2023-05-15T06:21:24.079Z,100.00
2023-05-15T06:23:51.733Z,100.00
2023-05-15T06:26:19.950Z,100.00
2023-05-15T06:28:47.468Z,100.00
2023-05-15T06:31:15.084Z,100.00
2023-05-15T06:33:42.595Z,100.00
2023-05-15T06:36:10.090Z,100.00
2023-05-15T06:38:37.867Z,100.00
2023-05-15T06:41:05.593Z,100.00
2023-05-15T06:43:33.766Z,100.00
2023-05-15T06:46:01.856Z,100.00
2023-05-15T06:48:29.753Z,100.00
2023-05-15T06:50:57.389Z,100.00
2023-05-15T06:53:25.431Z,100.00
2023-05-15T06:55:53.325Z,100.00
2023-05-15T06:58:21.442Z,100.00
2023-05-15T07:00:49.002Z,100.00
2023-05-15T07:03:16.856Z,100.00
2023-05-15T07:05:45.445Z,100.00
2023-05-15T07:08:13.439Z,100.00
2023-05-15T07:10:41.658Z,100.00
2023-05-15T07:13:09.684Z,100.00
2023-05-15T07:15:37.705Z,100.00
2023-05-15T07:18:06.343Z,100.00
2023-05-15T07:20:35.127Z,100.00
2023-05-15T07:23:03.576Z,100.00
2023-05-15T07:25:31.497Z,100.00
2023-05-15T07:27:58.947Z,100.00
2023-05-15T07:30:27.114Z,100.00
2023-05-15T07:32:55.079Z,100.00
2023-05-15T07:35:23.029Z,100.00
2023-05-15T07:37:50.839Z,100.00
2023-05-15T07:40:18.837Z,100.00
2023-05-15T07:42:47.093Z,100.00
2023-05-15T07:45:14.853Z,100.00
2023-05-15T07:47:49.039Z,100.00
2023-05-15T07:50:17.776Z,100.00
2023-05-15T07:52:45.743Z,100.00
2023-05-15T07:55:13.759Z,100.00
2023-05-15T07:57:41.531Z,100.00
2023-05-15T08:00:12.944Z,100.00
2023-05-15T08:02:42.657Z,100.00
2023-05-15T08:05:10.754Z,100.00
2023-05-15T08:07:38.681Z,100.00
2023-05-15T08:10:07.397Z,100.00
2023-05-15T08:12:35.392Z,100.00
2023-05-15T08:15:03.320Z,100.00
2023-05-15T08:17:31.281Z,96.82
2023-05-15T08:19:58.745Z,97.77
2023-05-15T08:22:26.716Z,100.00
2023-05-15T08:24:54.984Z,100.00
2023-05-15T08:27:22.700Z,100.00
2023-05-15T08:29:50.548Z,98.52
2023-05-15T08:32:18.857Z,96.10
2023-05-15T08:34:46.413Z,95.09
2023-05-15T08:37:14.305Z,94.21
2023-05-15T08:39:41.857Z,93.15
2023-05-15T08:42:19.975Z,93.31
2023-05-15T08:44:48.667Z,90.97
2023-05-15T08:47:16.791Z,95.20
2023-05-15T08:50:17.523Z,96.88
2023-05-15T08:52:47.480Z,92.28
2023-05-15T08:55:16.759Z,88.61
2023-05-15T08:57:45.677Z,91.01
2023-05-15T09:00:14.976Z,91.44
2023-05-15T09:02:43.283Z,91.72
2023-05-15T09:05:11.371Z,83.99
2023-05-15T09:07:41.799Z,84.64
2023-05-15T09:10:11.151Z,86.47
2023-05-15T09:12:43.576Z,88.48
2023-05-15T09:15:18.646Z,91.68
2023-05-15T09:17:46.405Z,89.47
2023-05-15T09:20:34.553Z,86.70
2023-05-15T09:23:04.572Z,81.32
2023-05-15T09:25:40.847Z,73.47
2023-05-15T09:28:10.751Z,75.55
2023-05-15T09:30:39.356Z,75.72
2023-05-15T09:33:07.234Z,76.83
2023-05-15T09:35:37.336Z,72.02
2023-05-15T09:38:10.612Z,73.20
2023-05-15T09:40:39.370Z,70.86
2023-05-15T09:43:08.076Z,70.81
2023-05-15T09:45:35.661Z,66.98
2023-05-15T09:48:08.619Z,70.48
2023-05-15T09:50:40.978Z,70.49
2023-05-15T09:53:13.219Z,66.60
2023-05-15T09:55:42.711Z,62.66
2023-05-15T09:58:11.836Z,67.10
2023-05-15T10:00:47.895Z,57.99
2023-05-15T10:03:20.080Z,54.26
2023-05-15T10:05:49.176Z,50.28
2023-05-15T10:08:27.233Z,49.65
2023-05-15T10:10:58.572Z,51.84
2023-05-15T10:13:27.418Z,49.49
2023-05-15T10:15:57.607Z,47.61
2023-05-15T10:18:30.562Z,43.88
2023-05-15T10:21:01.362Z,42.30
2023-05-15T10:23:31.444Z,45.52
2023-05-15T10:26:08.991Z,42.68
2023-05-15T10:28:38.048Z,41.23
2023-05-15T10:31:07.676Z,46.38
2023-05-15T10:33:37.505Z,40.32
2023-05-15T10:36:05.706Z,39.45
2023-05-15T10:38:34.723Z,41.62
2023-05-15T10:41:15.697Z,41.77
2023-05-15T10:43:46.685Z,39.76
2023-05-15T10:46:15.865Z,42.38
2023-05-15T10:48:43.866Z,41.06
2023-05-15T10:51:39.567Z,40.94
2023-05-15T10:54:10.163Z,40.77
2023-05-15T10:56:39.602Z,41.16
2023-05-15T10:59:09.663Z,37.16
2023-05-15T11:01:39.224Z,34.09
2023-05-15T11:04:19.322Z,32.34
2023-05-15T11:06:48.450Z,34.00
2023-05-15T11:09:22.089Z,34.00
2023-05-15T11:11:52.570Z,33.72
2023-05-15T11:14:20.871Z,33.45
2023-05-15T11:16:54.683Z,34.36
2023-05-15T11:19:22.484Z,35.02
2023-05-15T11:21:59.482Z,34.68
2023-05-15T11:24:49.331Z,36.97
2023-05-15T11:27:21.413Z,35.99
2023-05-15T11:30:22.205Z,35.86
2023-05-15T11:33:00.759Z,35.04
2023-05-15T11:35:43.301Z,34.28
2023-05-15T11:38:11.525Z,32.47
2023-05-15T11:40:58.610Z,31.49
2023-05-15T11:43:27.588Z,31.03
2023-05-15T11:46:05.875Z,34.69
2023-05-15T11:48:35.878Z,33.80
2023-05-15T11:51:04.451Z,32.58
2023-05-15T11:53:33.408Z,32.40
2023-05-15T11:56:00.978Z,33.09
2023-05-15T11:58:28.639Z,31.02
2023-05-15T12:00:58.231Z,31.77
2023-05-15T12:03:34.085Z,32.94
2023-05-15T12:06:02.981Z,31.94
2023-05-15T12:08:38.944Z,31.09
2023-05-15T12:11:06.529Z,30.51
2023-05-15T12:13:34.861Z,31.32
2023-05-15T12:16:04.008Z,30.61
2023-05-15T12:18:32.659Z,30.98
2023-05-15T12:21:00.496Z,28.98
2023-05-15T12:23:28.854Z,28.24
2023-05-15T12:26:01.006Z,28.37
2023-05-15T12:28:30.281Z,29.12
2023-05-15T12:30:58.713Z,27.57
2023-05-15T12:33:26.702Z,29.33
2023-05-15T12:35:58.956Z,28.92
2023-05-15T12:38:28.916Z,27.10
2023-05-15T12:40:57.253Z,25.10
2023-05-15T12:43:26.137Z,26.41
2023-05-15T12:45:55.361Z,26.69
2023-05-15T12:48:24.059Z,24.66
2023-05-15T12:50:51.746Z,26.15
2023-05-15T12:53:22.568Z,25.21
2023-05-15T12:55:53.584Z,23.74
2023-05-15T12:58:48.754Z,25.35
2023-05-15T13:01:17.717Z,24.47
2023-05-15T13:03:45.834Z,23.15
2023-05-15T13:06:13.536Z,23.20
2023-05-15T13:08:42.060Z,24.56
2023-05-15T13:11:16.730Z,25.09
2023-05-15T13:13:48.914Z,24.89
2023-05-15T13:16:26.064Z,26.94
2023-05-15T13:18:53.960Z,26.06
2023-05-15T13:21:21.838Z,25.02
2023-05-15T13:23:49.845Z,26.89
2023-05-15T13:26:17.876Z,26.32
2023-05-15T13:28:45.358Z,25.56
2023-05-15T13:31:12.954Z,28.93
2023-05-15T13:33:40.546Z,26.50
2023-05-15T13:36:08.919Z,26.03
2023-05-15T13:38:37.118Z,25.82
2023-05-15T13:41:05.441Z,23.43
2023-05-15T13:43:33.584Z,23.60
2023-05-15T13:46:01.591Z,26.91
2023-05-15T13:48:29.508Z,28.90
2023-05-15T13:50:57.408Z,29.13
2023-05-15T13:53:24.903Z,30.46
2023-05-15T13:55:53.381Z,29.89
2023-05-15T13:58:21.229Z,27.69
2023-05-15T14:00:48.840Z,27.70
2023-05-15T14:03:16.414Z,24.32
2023-05-15T14:05:44.522Z,24.62
2023-05-15T14:08:12.186Z,23.80
2023-05-15T14:10:39.743Z,25.43
2023-05-15T14:13:07.667Z,25.27
2023-05-15T14:15:35.144Z,27.55
2023-05-15T14:18:03.315Z,31.65
2023-05-15T14:20:30.900Z,33.95
2023-05-15T14:22:58.843Z,31.82
2023-05-15T14:25:26.391Z,28.23
2023-05-15T14:27:54.316Z,25.43
2023-05-15T14:30:22.035Z,26.71
2023-05-15T14:32:49.555Z,26.32
2023-05-15T14:35:17.291Z,28.76
2023-05-15T14:37:45.600Z,31.20
2023-05-15T14:40:13.509Z,30.30
2023-05-15T14:42:41.142Z,27.81
2023-05-15T14:45:09.709Z,30.02
2023-05-15T14:47:37.272Z,27.85
2023-05-15T14:50:05.711Z,28.12
2023-05-15T14:52:33.879Z,32.21
2023-05-15T14:55:09.274Z,32.77
2023-05-15T14:57:38.639Z,35.56
2023-05-15T15:00:07.349Z,35.68
2023-05-15T15:02:35.627Z,36.33
2023-05-15T15:05:04.535Z,37.57
2023-05-15T15:07:59.447Z,35.91
2023-05-15T15:10:27.870Z,35.59
2023-05-15T15:12:56.332Z,31.61
2023-05-15T15:15:24.789Z,29.84
2023-05-15T15:17:53.194Z,31.95
2023-05-15T15:20:21.929Z,32.10
2023-05-15T15:22:49.612Z,28.06
2023-05-15T15:25:18.030Z,26.22
2023-05-15T15:27:46.466Z,23.37
2023-05-15T15:30:15.418Z,22.03
2023-05-15T15:32:45.488Z,20.17
2023-05-15T15:35:13.850Z,21.48
2023-05-15T15:37:41.591Z,22.85
2023-05-15T15:40:09.786Z,28.08
2023-05-15T15:42:38.178Z,32.23
2023-05-15T15:45:06.863Z,31.66
2023-05-15T15:47:34.387Z,29.87
2023-05-15T15:50:02.987Z,31.95
2023-05-15T15:52:30.814Z,31.51
2023-05-15T15:54:58.718Z,35.11
2023-05-15T15:57:28.507Z,34.27
2023-05-15T15:59:56.440Z,32.89
2023-05-15T16:02:24.441Z,32.17
2023-05-15T16:04:52.038Z,35.24
2023-05-15T16:07:20.776Z,36.99
2023-05-15T16:09:59.878Z,38.47
2023-05-15T16:12:35.923Z,40.47
2023-05-15T16:15:17.503Z,41.80
2023-05-15T16:17:54.147Z,40.94
2023-05-15T16:20:22.897Z,40.50
2023-05-15T16:22:50.958Z,35.40
2023-05-15T16:25:18.953Z,32.38
2023-05-15T16:27:46.890Z,30.08
2023-05-15T16:30:14.579Z,27.90
2023-05-15T16:32:42.547Z,27.75
2023-05-15T16:35:10.212Z,28.49
2023-05-15T16:37:37.876Z,29.89
2023-05-15T16:40:07.044Z,32.00
2023-05-15T16:42:38.666Z,36.94
2023-05-15T16:45:07.662Z,40.02
2023-05-15T16:47:37.702Z,41.74
2023-05-15T16:50:08.797Z,42.63
2023-05-15T16:52:38.859Z,44.04
2023-05-15T16:55:07.241Z,45.74
2023-05-15T16:57:34.783Z,46.57
2023-05-15T17:00:02.875Z,47.41
2023-05-15T17:02:30.779Z,49.14
2023-05-15T17:04:59.029Z,44.91
2023-05-15T17:07:26.921Z,42.99
2023-05-15T17:09:54.954Z,44.07
2023-05-15T17:12:23.630Z,44.51
2023-05-15T17:14:51.287Z,44.49
2023-05-15T17:17:19.122Z,45.56
2023-05-15T17:19:46.818Z,45.40
2023-05-15T17:22:15.066Z,45.97
2023-05-15T17:27:18.484Z,47.67
2023-05-15T17:29:47.000Z,47.71
2023-05-15T17:32:16.952Z,47.40
2023-05-15T17:34:45.533Z,48.30
2023-05-15T17:37:13.613Z,48.68
2023-05-15T17:39:41.525Z,50.62
2023-05-15T17:42:09.166Z,51.60
2023-05-15T17:44:37.273Z,51.90
2023-05-15T17:47:05.314Z,56.43
2023-05-15T17:49:34.669Z,57.78
2023-05-15T17:52:02.683Z,56.32
2023-05-15T17:54:30.380Z,60.10
2023-05-15T17:56:57.854Z,59.13
2023-05-15T17:59:26.268Z,59.23
2023-05-15T18:01:54.760Z,59.13
2023-05-15T18:04:22.729Z,62.40
2023-05-15T18:06:51.520Z,64.32
2023-05-15T18:09:23.207Z,62.46
2023-05-15T18:11:52.679Z,63.52
2023-05-15T18:14:20.863Z,63.11
2023-05-15T18:16:48.358Z,60.50
2023-05-15T18:19:16.493Z,59.83
2023-05-15T18:21:44.081Z,58.83
2023-05-15T18:24:11.601Z,59.62
2023-05-15T18:26:39.156Z,60.93
2023-05-15T18:29:06.910Z,60.50
2023-05-15T18:31:34.890Z,61.75
2023-05-15T18:34:02.676Z,64.29
2023-05-15T18:36:30.902Z,64.09
2023-05-15T18:38:58.926Z,63.87
2023-05-15T18:41:27.181Z,64.25
2023-05-15T18:43:55.727Z,64.32
2023-05-15T18:46:25.766Z,64.65
2023-05-15T18:48:53.785Z,65.52
2023-05-15T18:51:21.783Z,64.82
2023-05-15T18:53:49.388Z,63.88
2023-05-15T18:56:16.923Z,65.37
2023-05-15T18:58:47.339Z,65.75
2023-05-15T19:01:15.021Z,69.62
2023-05-15T19:03:42.985Z,71.14
2023-05-15T19:06:11.620Z,70.53
2023-05-15T19:08:39.573Z,74.47
2023-05-15T19:11:08.842Z,72.70
2023-05-15T19:13:36.775Z,73.81
2023-05-15T19:16:06.152Z,78.22
2023-05-15T19:18:33.908Z,74.79
2023-05-15T19:21:02.040Z,78.00
2023-05-15T19:23:29.703Z,78.55
2023-05-15T19:25:57.678Z,77.66
2023-05-15T19:28:26.177Z,77.54
2023-05-15T19:30:54.058Z,75.64
2023-05-15T19:33:22.110Z,75.17
2023-05-15T19:35:49.739Z,73.71
2023-05-15T19:38:19.211Z,74.23
2023-05-15T19:40:46.998Z,73.24
2023-05-15T19:43:14.898Z,73.82
2023-05-15T19:45:43.871Z,75.11
2023-05-15T19:48:12.082Z,75.91
2023-05-15T19:50:40.144Z,76.51
2023-05-15T19:53:08.708Z,77.79
2023-05-15T19:55:36.264Z,78.04
2023-05-15T19:58:04.245Z,78.85
2023-05-15T20:00:32.487Z,78.87
2023-05-15T20:03:01.048Z,79.78
2023-05-15T20:05:29.558Z,82.47
2023-05-15T20:07:57.237Z,83.84
2023-05-15T20:10:25.550Z,85.32
2023-05-15T20:12:53.335Z,84.67
2023-05-15T20:15:21.240Z,86.89
2023-05-15T20:17:48.905Z,86.31
2023-05-15T20:20:17.804Z,88.08
2023-05-15T20:22:46.484Z,88.13
2023-05-15T20:25:15.173Z,89.08
2023-05-15T20:27:42.804Z,86.28
2023-05-15T20:30:11.862Z,87.06
2023-05-15T20:32:39.992Z,89.15
2023-05-15T20:35:09.141Z,88.78
2023-05-15T20:37:42.782Z,89.84
2023-05-15T20:40:15.736Z,89.17
2023-05-15T20:42:43.557Z,90.54
2023-05-15T20:45:11.452Z,90.13
2023-05-15T20:47:40.488Z,91.01
2023-05-15T20:50:12.877Z,92.14
2023-05-15T20:52:41.348Z,96.14
2023-05-15T20:55:16.654Z,98.76
2023-05-15T20:57:47.175Z,98.51
2023-05-15T21:00:17.201Z,94.33
2023-05-15T21:02:46.050Z,92.10
2023-05-15T21:05:14.830Z,91.33
2023-05-15T21:07:42.846Z,90.51
2023-05-15T21:10:11.615Z,90.29
2023-05-15T21:12:39.939Z,88.25
2023-05-15T21:15:08.034Z,87.28
2023-05-15T21:17:36.070Z,87.71
2023-05-15T21:20:05.000Z,87.56
2023-05-15T21:22:34.593Z,85.06
2023-05-15T21:25:02.220Z,88.10
2023-05-15T21:27:29.917Z,87.03
2023-05-15T21:29:57.478Z,85.84
2023-05-15T21:32:25.640Z,84.17
2023-05-15T21:34:53.545Z,82.61
2023-05-15T21:37:21.255Z,80.71
2023-05-15T21:39:49.307Z,81.12
2023-05-15T21:42:16.893Z,80.11
2023-05-15T21:44:46.478Z,80.43
2023-05-15T21:47:13.938Z,82.22
2023-05-15T21:49:41.836Z,82.87
2023-05-15T21:52:09.561Z,83.48
2023-05-15T21:54:37.088Z,82.72
2023-05-15T21:57:04.924Z,82.35
2023-05-15T21:59:32.433Z,81.87
2023-05-15T22:02:00.618Z,82.49
2023-05-15T22:04:30.243Z,83.05
2023-05-15T22:06:58.189Z,84.65
2023-05-15T22:09:26.029Z,85.69
2023-05-15T22:11:53.655Z,84.24
2023-05-15T22:14:21.716Z,85.22
2023-05-15T22:16:49.392Z,86.29
2023-05-15T22:19:31.519Z,87.12
2023-05-15T22:22:03.611Z,85.05
2023-05-15T22:24:31.235Z,86.93
2023-05-15T22:26:59.774Z,86.14
2023-05-15T22:29:27.897Z,89.42
2023-05-15T22:31:56.391Z,88.34
2023-05-15T22:34:25.944Z,85.52
2023-05-15T22:39:28.296Z,83.09
2023-05-15T22:41:56.033Z,82.52
2023-05-15T22:44:23.755Z,81.65
2023-05-15T22:46:51.611Z,81.68
2023-05-15T22:49:23.705Z,82.14
2023-05-15T22:51:55.927Z,81.08
2023-05-15T22:54:24.638Z,82.52
2023-05-15T22:56:53.065Z,85.59
2023-05-15T22:59:20.996Z,90.65
2023-05-15T23:01:49.357Z,94.56
2023-05-15T23:04:17.947Z,94.77
2023-05-15T23:06:45.801Z,94.23
2023-05-15T23:09:14.181Z,92.91
2023-05-15T23:11:42.423Z,93.00
2023-05-15T23:14:10.020Z,90.86
2023-05-15T23:16:37.756Z,90.52
2023-05-15T23:19:05.969Z,89.76
2023-05-15T23:21:33.949Z,88.47
2023-05-15T23:24:01.575Z,87.89
2023-05-15T23:26:29.776Z,89.05
2023-05-15T23:28:57.366Z,86.11
2023-05-15T23:31:26.194Z,87.46
2023-05-15T23:33:53.819Z,88.01
2023-05-15T23:36:21.557Z,87.51
2023-05-15T23:38:49.165Z,85.02
2023-05-15T23:41:17.383Z,82.18
2023-05-15T23:43:44.892Z,82.40
2023-05-15T23:46:12.510Z,80.46
2023-05-15T23:48:40.124Z,79.23
2023-05-15T23:51:08.016Z,78.57
2023-05-15T23:53:36.813Z,76.11
2023-05-15T23:56:05.195Z,74.34
2023-05-15T23:58:33.967Z,73.43
